sensor_id;sensor_type;location;lat;lon;timestamp;P1;durP1;ratioP1;P2;durP2;ratioP2
71648;SDS011;70112;45.624;11.760;2024-02-28T00:01:59;3.50;;;1.60;;
71648;SDS011;70112;45.624;11.760;2024-02-28T00:04:25;4.10;;;2.60;;
71648;SDS011;70112;45.624;11.760;2024-02-28T00:06:50;4.90;;;1.90;;
71648;SDS011;70112;45.624;11.760;2024-02-28T00:09:16;4.90;;;2.10;;
71648;SDS011;70112;45.624;11.760;2024-02-28T00:11:45;4.10;;;1.90;;
71648;SDS011;70112;45.624;11.760;2024-02-28T00:14:12;5.60;;;1.90;;
71648;SDS011;70112;45.624;11.760;2024-02-28T00:16:45;4.00;;;2.00;;
71648;SDS011;70112;45.624;11.760;2024-02-28T00:19:12;3.20;;;1.90;;
71648;SDS011;70112;45.624;11.760;2024-02-28T00:21:41;6.80;;;2.40;;
71648;SDS011;70112;45.624;11.760;2024-02-28T00:24:07;4.00;;;1.70;;
71648;SDS011;70112;45.624;11.760;2024-02-28T00:26:33;3.20;;;1.90;;
71648;SDS011;70112;45.624;11.760;2024-02-28T00:28:58;7.20;;;2.00;;
71648;SDS011;70112;45.624;11.760;2024-02-28T00:31:24;3.90;;;1.80;;
71648;SDS011;70112;45.624;11.760;2024-02-28T00:33:50;4.90;;;1.80;;
71648;SDS011;70112;45.624;11.760;2024-02-28T00:36:15;5.30;;;2.10;;
71648;SDS011;70112;45.624;11.760;2024-02-28T00:38:41;4.40;;;2.00;;
71648;SDS011;70112;45.624;11.760;2024-02-28T00:41:07;5.70;;;2.20;;
71648;SDS011;70112;45.624;11.760;2024-02-28T00:43:33;3.70;;;2.10;;
71648;SDS011;70112;45.624;11.760;2024-02-28T00:45:58;3.20;;;1.90;;
71648;SDS011;70112;45.624;11.760;2024-02-28T00:48:24;6.50;;;2.40;;
71648;SDS011;70112;45.624;11.760;2024-02-28T00:50:50;4.60;;;1.90;;
71648;SDS011;70112;45.624;11.760;2024-02-28T00:53:17;6.40;;;2.40;;
71648;SDS011;70112;45.624;11.760;2024-02-28T00:55:43;5.80;;;2.10;;
71648;SDS011;70112;45.624;11.760;2024-02-28T00:58:08;3.40;;;2.10;;
71648;SDS011;70112;45.624;11.760;2024-02-28T01:00:34;3.40;;;1.50;;
71648;SDS011;70112;45.624;11.760;2024-02-28T01:03:00;5.50;;;2.00;;
71648;SDS011;70112;45.624;11.760;2024-02-28T01:05:29;4.20;;;2.10;;
71648;SDS011;70112;45.624;11.760;2024-02-28T01:07:54;4.10;;;1.50;;
71648;SDS011;70112;45.624;11.760;2024-02-28T01:10:20;4.80;;;2.00;;
71648;SDS011;70112;45.624;11.760;2024-02-28T01:12:46;2.30;;;1.50;;
71648;SDS011;70112;45.624;11.760;2024-02-28T01:15:12;4.60;;;2.20;;
71648;SDS011;70112;45.624;11.760;2024-02-28T01:17:38;6.40;;;1.80;;
71648;SDS011;70112;45.624;11.760;2024-02-28T01:20:05;2.50;;;1.60;;
71648;SDS011;70112;45.624;11.760;2024-02-28T01:22:32;3.40;;;1.70;;
71648;SDS011;70112;45.624;11.760;2024-02-28T01:24:58;3.40;;;1.90;;
71648;SDS011;70112;45.624;11.760;2024-02-28T01:27:24;4.10;;;1.80;;
71648;SDS011;70112;45.624;11.760;2024-02-28T01:29:49;4.00;;;1.70;;
71648;SDS011;70112;45.624;11.760;2024-02-28T01:32:15;3.30;;;1.80;;
71648;SDS011;70112;45.624;11.760;2024-02-28T01:34:40;1.90;;;1.50;;
71648;SDS011;70112;45.624;11.760;2024-02-28T01:37:05;4.60;;;1.60;;
71648;SDS011;70112;45.624;11.760;2024-02-28T01:39:31;3.60;;;1.80;;
71648;SDS011;70112;45.624;11.760;2024-02-28T01:41:56;3.50;;;1.60;;
71648;SDS011;70112;45.624;11.760;2024-02-28T01:44:23;4.40;;;1.40;;
71648;SDS011;70112;45.624;11.760;2024-02-28T01:46:51;3.20;;;1.50;;
71648;SDS011;70112;45.624;11.760;2024-02-28T01:49:17;3.00;;;1.50;;
71648;SDS011;70112;45.624;11.760;2024-02-28T01:51:44;4.70;;;1.60;;
71648;SDS011;70112;45.624;11.760;2024-02-28T01:54:10;3.80;;;1.50;;
71648;SDS011;70112;45.624;11.760;2024-02-28T01:56:36;5.50;;;1.60;;
71648;SDS011;70112;45.624;11.760;2024-02-28T01:59:02;4.70;;;1.80;;
71648;SDS011;70112;45.624;11.760;2024-02-28T02:01:28;5.20;;;1.70;;
71648;SDS011;70112;45.624;11.760;2024-02-28T02:03:54;4.20;;;1.90;;
71648;SDS011;70112;45.624;11.760;2024-02-28T02:06:20;3.40;;;1.70;;
71648;SDS011;70112;45.624;11.760;2024-02-28T02:08:46;4.00;;;1.40;;
71648;SDS011;70112;45.624;11.760;2024-02-28T02:11:14;4.50;;;1.70;;
71648;SDS011;70112;45.624;11.760;2024-02-28T02:13:50;2.50;;;1.40;;
71648;SDS011;70112;45.624;11.760;2024-02-28T02:16:17;4.40;;;1.90;;
71648;SDS011;70112;45.624;11.760;2024-02-28T02:18:48;3.00;;;1.50;;
71648;SDS011;70112;45.624;11.760;2024-02-28T02:21:17;2.70;;;1.40;;
71648;SDS011;70112;45.624;11.760;2024-02-28T02:23:44;4.00;;;2.10;;
71648;SDS011;70112;45.624;11.760;2024-02-28T02:26:09;2.80;;;1.50;;
71648;SDS011;70112;45.624;11.760;2024-02-28T02:28:35;2.30;;;1.70;;
71648;SDS011;70112;45.624;11.760;2024-02-28T02:31:00;2.70;;;1.70;;
71648;SDS011;70112;45.624;11.760;2024-02-28T02:33:26;3.70;;;1.70;;
71648;SDS011;70112;45.624;11.760;2024-02-28T02:35:53;4.40;;;1.60;;
71648;SDS011;70112;45.624;11.760;2024-02-28T02:38:19;3.70;;;1.50;;
71648;SDS011;70112;45.624;11.760;2024-02-28T02:40:51;3.90;;;1.70;;
71648;SDS011;70112;45.624;11.760;2024-02-28T02:43:17;3.60;;;1.40;;
71648;SDS011;70112;45.624;11.760;2024-02-28T02:45:43;2.80;;;1.60;;
71648;SDS011;70112;45.624;11.760;2024-02-28T02:48:09;3.30;;;1.50;;
71648;SDS011;70112;45.624;11.760;2024-02-28T02:50:35;1.90;;;1.50;;
71648;SDS011;70112;45.624;11.760;2024-02-28T02:53:02;5.90;;;1.50;;
71648;SDS011;70112;45.624;11.760;2024-02-28T02:55:28;5.00;;;2.40;;
71648;SDS011;70112;45.624;11.760;2024-02-28T02:57:54;5.80;;;1.60;;
71648;SDS011;70112;45.624;11.760;2024-02-28T03:00:20;3.10;;;1.70;;
71648;SDS011;70112;45.624;11.760;2024-02-28T03:02:46;4.30;;;1.60;;
71648;SDS011;70112;45.624;11.760;2024-02-28T03:05:12;4.40;;;2.60;;
71648;SDS011;70112;45.624;11.760;2024-02-28T03:07:37;4.00;;;1.80;;
71648;SDS011;70112;45.624;11.760;2024-02-28T03:10:03;3.60;;;1.70;;
71648;SDS011;70112;45.624;11.760;2024-02-28T03:12:29;4.80;;;1.80;;
71648;SDS011;70112;45.624;11.760;2024-02-28T03:14:55;5.90;;;1.90;;
71648;SDS011;70112;45.624;11.760;2024-02-28T03:17:20;4.00;;;1.90;;
71648;SDS011;70112;45.624;11.760;2024-02-28T03:19:46;4.70;;;1.70;;
71648;SDS011;70112;45.624;11.760;2024-02-28T03:22:12;2.70;;;1.70;;
71648;SDS011;70112;45.624;11.760;2024-02-28T03:24:37;5.60;;;1.80;;
71648;SDS011;70112;45.624;11.760;2024-02-28T03:27:03;6.50;;;1.60;;
71648;SDS011;70112;45.624;11.760;2024-02-28T03:29:29;4.00;;;1.70;;
71648;SDS011;70112;45.624;11.760;2024-02-28T03:31:55;4.20;;;1.70;;
71648;SDS011;70112;45.624;11.760;2024-02-28T03:34:21;4.80;;;1.80;;
71648;SDS011;70112;45.624;11.760;2024-02-28T03:36:46;2.90;;;1.60;;
71648;SDS011;70112;45.624;11.760;2024-02-28T03:39:12;3.30;;;2.00;;
71648;SDS011;70112;45.624;11.760;2024-02-28T03:41:38;4.80;;;1.30;;
71648;SDS011;70112;45.624;11.760;2024-02-28T03:44:04;5.00;;;2.00;;
71648;SDS011;70112;45.624;11.760;2024-02-28T03:46:30;3.90;;;1.90;;
71648;SDS011;70112;45.624;11.760;2024-02-28T03:48:56;3.90;;;2.20;;
71648;SDS011;70112;45.624;11.760;2024-02-28T03:51:21;5.70;;;3.10;;
71648;SDS011;70112;45.624;11.760;2024-02-28T03:53:47;4.10;;;2.90;;
71648;SDS011;70112;45.624;11.760;2024-02-28T03:56:12;4.00;;;2.80;;
71648;SDS011;70112;45.624;11.760;2024-02-28T03:58:40;6.30;;;3.30;;
71648;SDS011;70112;45.624;11.760;2024-02-28T04:01:06;3.80;;;2.70;;
71648;SDS011;70112;45.624;11.760;2024-02-28T04:03:31;5.90;;;2.20;;
71648;SDS011;70112;45.624;11.760;2024-02-28T04:05:57;3.80;;;2.10;;
71648;SDS011;70112;45.624;11.760;2024-02-28T04:08:23;6.80;;;2.90;;
71648;SDS011;70112;45.624;11.760;2024-02-28T04:10:49;3.10;;;2.20;;
71648;SDS011;70112;45.624;11.760;2024-02-28T04:13:16;4.70;;;2.20;;
71648;SDS011;70112;45.624;11.760;2024-02-28T04:15:41;4.40;;;1.60;;
71648;SDS011;70112;45.624;11.760;2024-02-28T04:18:07;5.50;;;1.90;;
71648;SDS011;70112;45.624;11.760;2024-02-28T04:20:32;3.40;;;2.10;;
71648;SDS011;70112;45.624;11.760;2024-02-28T04:22:58;4.20;;;2.30;;
71648;SDS011;70112;45.624;11.760;2024-02-28T04:25:23;6.30;;;3.10;;
71648;SDS011;70112;45.624;11.760;2024-02-28T04:27:49;4.50;;;2.60;;
71648;SDS011;70112;45.624;11.760;2024-02-28T04:30:15;3.90;;;2.40;;
71648;SDS011;70112;45.624;11.760;2024-02-28T04:32:40;9.90;;;3.90;;
71648;SDS011;70112;45.624;11.760;2024-02-28T04:35:06;7.40;;;3.30;;
71648;SDS011;70112;45.624;11.760;2024-02-28T04:37:32;12.20;;;4.20;;
71648;SDS011;70112;45.624;11.760;2024-02-28T04:40:00;4.50;;;2.20;;
71648;SDS011;70112;45.624;11.760;2024-02-28T04:42:25;3.40;;;1.70;;
71648;SDS011;70112;45.624;11.760;2024-02-28T04:44:51;5.00;;;3.10;;
71648;SDS011;70112;45.624;11.760;2024-02-28T04:47:16;10.00;;;5.40;;
71648;SDS011;70112;45.624;11.760;2024-02-28T04:49:42;4.70;;;2.70;;
71648;SDS011;70112;45.624;11.760;2024-02-28T04:52:07;7.20;;;2.00;;
71648;SDS011;70112;45.624;11.760;2024-02-28T04:54:33;2.00;;;1.60;;
71648;SDS011;70112;45.624;11.760;2024-02-28T04:56:59;5.40;;;1.80;;
71648;SDS011;70112;45.624;11.760;2024-02-28T04:59:24;5.20;;;1.90;;
71648;SDS011;70112;45.624;11.760;2024-02-28T05:01:50;3.50;;;1.50;;
71648;SDS011;70112;45.624;11.760;2024-02-28T05:04:17;2.20;;;1.30;;
71648;SDS011;70112;45.624;11.760;2024-02-28T05:06:42;5.10;;;1.60;;
71648;SDS011;70112;45.624;11.760;2024-02-28T05:09:08;2.00;;;1.40;;
71648;SDS011;70112;45.624;11.760;2024-02-28T05:11:34;3.00;;;1.40;;
71648;SDS011;70112;45.624;11.760;2024-02-28T05:14:00;2.10;;;1.50;;
71648;SDS011;70112;45.624;11.760;2024-02-28T05:16:25;2.80;;;1.40;;
71648;SDS011;70112;45.624;11.760;2024-02-28T05:18:51;2.40;;;1.40;;
71648;SDS011;70112;45.624;11.760;2024-02-28T05:21:16;3.40;;;2.30;;
71648;SDS011;70112;45.624;11.760;2024-02-28T05:23:42;4.30;;;2.40;;
71648;SDS011;70112;45.624;11.760;2024-02-28T05:26:08;15.80;;;6.70;;
71648;SDS011;70112;45.624;11.760;2024-02-28T05:28:33;27.20;;;12.00;;
71648;SDS011;70112;45.624;11.760;2024-02-28T05:31:02;21.10;;;9.60;;
71648;SDS011;70112;45.624;11.760;2024-02-28T05:33:29;21.60;;;10.40;;
71648;SDS011;70112;45.624;11.760;2024-02-28T05:35:55;37.20;;;15.40;;
71648;SDS011;70112;45.624;11.760;2024-02-28T05:38:20;29.60;;;13.00;;
71648;SDS011;70112;45.624;11.760;2024-02-28T05:40:46;31.70;;;15.00;;
71648;SDS011;70112;45.624;11.760;2024-02-28T05:43:11;32.30;;;15.00;;
71648;SDS011;70112;45.624;11.760;2024-02-28T05:45:37;26.10;;;13.20;;
71648;SDS011;70112;45.624;11.760;2024-02-28T05:48:02;26.40;;;14.50;;
71648;SDS011;70112;45.624;11.760;2024-02-28T05:50:28;11.70;;;6.70;;
71648;SDS011;70112;45.624;11.760;2024-02-28T05:52:55;20.10;;;12.30;;
71648;SDS011;70112;45.624;11.760;2024-02-28T05:55:20;17.90;;;10.30;;
71648;SDS011;70112;45.624;11.760;2024-02-28T05:57:49;15.30;;;8.70;;
71648;SDS011;70112;45.624;11.760;2024-02-28T06:00:14;14.30;;;7.00;;
71648;SDS011;70112;45.624;11.760;2024-02-28T06:02:40;7.00;;;4.10;;
71648;SDS011;70112;45.624;11.760;2024-02-28T06:05:07;3.30;;;2.60;;
71648;SDS011;70112;45.624;11.760;2024-02-28T06:07:33;3.00;;;2.30;;
71648;SDS011;70112;45.624;11.760;2024-02-28T06:09:59;3.30;;;2.50;;
71648;SDS011;70112;45.624;11.760;2024-02-28T06:12:25;2.90;;;2.30;;
71648;SDS011;70112;45.624;11.760;2024-02-28T06:14:50;2.20;;;1.90;;
71648;SDS011;70112;45.624;11.760;2024-02-28T06:17:15;1.80;;;1.40;;
71648;SDS011;70112;45.624;11.760;2024-02-28T06:19:41;1.80;;;1.30;;
71648;SDS011;70112;45.624;11.760;2024-02-28T06:22:06;1.40;;;1.30;;
71648;SDS011;70112;45.624;11.760;2024-02-28T06:24:35;2.20;;;1.90;;
71648;SDS011;70112;45.624;11.760;2024-02-28T06:27:01;1.60;;;1.10;;
71648;SDS011;70112;45.624;11.760;2024-02-28T06:29:27;1.20;;;1.00;;
71648;SDS011;70112;45.624;11.760;2024-02-28T06:31:52;2.00;;;1.30;;
71648;SDS011;70112;45.624;11.760;2024-02-28T06:34:18;1.70;;;1.30;;
71648;SDS011;70112;45.624;11.760;2024-02-28T06:36:44;1.70;;;1.30;;
71648;SDS011;70112;45.624;11.760;2024-02-28T06:39:09;2.50;;;1.70;;
71648;SDS011;70112;45.624;11.760;2024-02-28T06:41:35;3.00;;;2.00;;
71648;SDS011;70112;45.624;11.760;2024-02-28T06:44:00;3.50;;;2.30;;
71648;SDS011;70112;45.624;11.760;2024-02-28T06:46:26;4.10;;;2.30;;
71648;SDS011;70112;45.624;11.760;2024-02-28T06:48:52;2.80;;;2.20;;
71648;SDS011;70112;45.624;11.760;2024-02-28T06:51:17;3.00;;;2.30;;
71648;SDS011;70112;45.624;11.760;2024-02-28T06:53:43;4.60;;;2.70;;
71648;SDS011;70112;45.624;11.760;2024-02-28T06:56:08;3.60;;;3.00;;
71648;SDS011;70112;45.624;11.760;2024-02-28T06:58:34;4.00;;;3.40;;
71648;SDS011;70112;45.624;11.760;2024-02-28T07:01:00;5.30;;;4.40;;
71648;SDS011;70112;45.624;11.760;2024-02-28T07:03:25;7.90;;;5.80;;
71648;SDS011;70112;45.624;11.760;2024-02-28T07:05:51;9.80;;;6.60;;
71648;SDS011;70112;45.624;11.760;2024-02-28T07:08:18;8.40;;;5.80;;
71648;SDS011;70112;45.624;11.760;2024-02-28T07:10:43;7.10;;;5.10;;
71648;SDS011;70112;45.624;11.760;2024-02-28T07:13:12;4.50;;;4.10;;
71648;SDS011;70112;45.624;11.760;2024-02-28T07:15:38;3.70;;;3.00;;
71648;SDS011;70112;45.624;11.760;2024-02-28T07:18:07;3.50;;;2.90;;
71648;SDS011;70112;45.624;11.760;2024-02-28T07:20:33;3.70;;;3.20;;
71648;SDS011;70112;45.624;11.760;2024-02-28T07:22:59;4.20;;;3.50;;
71648;SDS011;70112;45.624;11.760;2024-02-28T07:25:24;5.50;;;4.10;;
71648;SDS011;70112;45.624;11.760;2024-02-28T07:27:50;5.10;;;4.30;;
71648;SDS011;70112;45.624;11.760;2024-02-28T07:30:15;5.80;;;4.00;;
71648;SDS011;70112;45.624;11.760;2024-02-28T07:32:41;4.20;;;3.80;;
71648;SDS011;70112;45.624;11.760;2024-02-28T07:35:07;6.30;;;3.70;;
71648;SDS011;70112;45.624;11.760;2024-02-28T07:37:32;5.40;;;4.00;;
71648;SDS011;70112;45.624;11.760;2024-02-28T07:39:58;4.50;;;3.80;;
71648;SDS011;70112;45.624;11.760;2024-02-28T07:42:24;40.90;;;34.10;;
71648;SDS011;70112;45.624;11.760;2024-02-28T07:44:49;23.70;;;20.30;;
71648;SDS011;70112;45.624;11.760;2024-02-28T07:47:19;7.50;;;6.80;;
71648;SDS011;70112;45.624;11.760;2024-02-28T07:49:45;6.30;;;5.40;;
71648;SDS011;70112;45.624;11.760;2024-02-28T07:52:10;9.20;;;6.60;;
71648;SDS011;70112;45.624;11.760;2024-02-28T07:54:36;10.20;;;8.50;;
71648;SDS011;70112;45.624;11.760;2024-02-28T07:57:02;9.80;;;7.00;;
71648;SDS011;70112;45.624;11.760;2024-02-28T07:59:27;7.00;;;5.30;;
71648;SDS011;70112;45.624;11.760;2024-02-28T08:01:53;8.90;;;7.80;;
71648;SDS011;70112;45.624;11.760;2024-02-28T08:04:20;8.70;;;6.10;;
71648;SDS011;70112;45.624;11.760;2024-02-28T08:06:45;6.40;;;4.10;;
71648;SDS011;70112;45.624;11.760;2024-02-28T08:09:11;5.40;;;4.10;;
71648;SDS011;70112;45.624;11.760;2024-02-28T08:11:37;4.70;;;3.50;;
71648;SDS011;70112;45.624;11.760;2024-02-28T08:14:03;7.10;;;4.40;;
71648;SDS011;70112;45.624;11.760;2024-02-28T08:16:29;8.10;;;4.80;;
71648;SDS011;70112;45.624;11.760;2024-02-28T08:18:54;7.00;;;5.80;;
71648;SDS011;70112;45.624;11.760;2024-02-28T08:21:20;9.30;;;7.70;;
71648;SDS011;70112;45.624;11.760;2024-02-28T08:23:45;13.50;;;10.20;;
71648;SDS011;70112;45.624;11.760;2024-02-28T08:26:11;21.60;;;14.50;;
71648;SDS011;70112;45.624;11.760;2024-02-28T08:28:36;35.60;;;24.10;;
71648;SDS011;70112;45.624;11.760;2024-02-28T08:31:02;28.90;;;20.90;;
71648;SDS011;70112;45.624;11.760;2024-02-28T08:33:27;23.80;;;17.90;;
71648;SDS011;70112;45.624;11.760;2024-02-28T08:35:53;18.90;;;14.40;;
71648;SDS011;70112;45.624;11.760;2024-02-28T08:38:19;11.20;;;9.60;;
71648;SDS011;70112;45.624;11.760;2024-02-28T08:40:44;11.70;;;7.70;;
71648;SDS011;70112;45.624;11.760;2024-02-28T08:43:10;8.00;;;5.40;;
71648;SDS011;70112;45.624;11.760;2024-02-28T08:45:36;6.40;;;5.00;;
71648;SDS011;70112;45.624;11.760;2024-02-28T08:48:01;6.30;;;3.20;;
71648;SDS011;70112;45.624;11.760;2024-02-28T08:50:28;3.50;;;3.00;;
71648;SDS011;70112;45.624;11.760;2024-02-28T08:52:54;2.90;;;2.70;;
71648;SDS011;70112;45.624;11.760;2024-02-28T08:55:19;4.40;;;3.00;;
71648;SDS011;70112;45.624;11.760;2024-02-28T08:57:47;4.10;;;3.50;;
71648;SDS011;70112;45.624;11.760;2024-02-28T09:00:14;4.10;;;3.20;;
71648;SDS011;70112;45.624;11.760;2024-02-28T09:02:41;5.20;;;3.60;;
71648;SDS011;70112;45.624;11.760;2024-02-28T09:05:06;4.40;;;3.70;;
71648;SDS011;70112;45.624;11.760;2024-02-28T09:07:34;4.70;;;3.50;;
71648;SDS011;70112;45.624;11.760;2024-02-28T09:10:03;3.50;;;2.70;;
71648;SDS011;70112;45.624;11.760;2024-02-28T09:12:30;3.30;;;2.90;;
71648;SDS011;70112;45.624;11.760;2024-02-28T09:14:56;3.90;;;2.00;;
71648;SDS011;70112;45.624;11.760;2024-02-28T09:17:23;3.30;;;2.20;;
71648;SDS011;70112;45.624;11.760;2024-02-28T09:19:48;4.40;;;2.60;;
71648;SDS011;70112;45.624;11.760;2024-02-28T09:22:14;4.30;;;2.70;;
71648;SDS011;70112;45.624;11.760;2024-02-28T09:24:42;4.30;;;2.50;;
71648;SDS011;70112;45.624;11.760;2024-02-28T09:27:07;5.20;;;3.30;;
71648;SDS011;70112;45.624;11.760;2024-02-28T09:29:33;4.50;;;3.10;;
71648;SDS011;70112;45.624;11.760;2024-02-28T09:31:58;2.80;;;2.40;;
71648;SDS011;70112;45.624;11.760;2024-02-28T09:34:24;5.30;;;2.70;;
71648;SDS011;70112;45.624;11.760;2024-02-28T09:36:49;3.80;;;2.60;;
71648;SDS011;70112;45.624;11.760;2024-02-28T09:39:15;4.30;;;2.80;;
71648;SDS011;70112;45.624;11.760;2024-02-28T09:41:41;3.50;;;3.10;;
71648;SDS011;70112;45.624;11.760;2024-02-28T09:44:07;3.10;;;2.60;;
71648;SDS011;70112;45.624;11.760;2024-02-28T09:46:33;2.70;;;2.30;;
71648;SDS011;70112;45.624;11.760;2024-02-28T09:49:03;2.80;;;2.00;;
71648;SDS011;70112;45.624;11.760;2024-02-28T09:51:33;3.40;;;2.20;;
71648;SDS011;70112;45.624;11.760;2024-02-28T09:54:00;6.20;;;1.90;;
71648;SDS011;70112;45.624;11.760;2024-02-28T09:56:27;7.20;;;2.80;;
71648;SDS011;70112;45.624;11.760;2024-02-28T09:58:54;3.70;;;2.90;;
71648;SDS011;70112;45.624;11.760;2024-02-28T10:01:21;6.20;;;3.20;;
71648;SDS011;70112;45.624;11.760;2024-02-28T10:03:49;5.10;;;3.50;;
71648;SDS011;70112;45.624;11.760;2024-02-28T10:06:17;6.80;;;3.50;;
71648;SDS011;70112;45.624;11.760;2024-02-28T10:08:43;5.30;;;3.50;;
71648;SDS011;70112;45.624;11.760;2024-02-28T10:11:17;6.00;;;3.00;;
71648;SDS011;70112;45.624;11.760;2024-02-28T10:13:46;3.80;;;2.80;;
71648;SDS011;70112;45.624;11.760;2024-02-28T10:16:13;3.80;;;2.80;;
71648;SDS011;70112;45.624;11.760;2024-02-28T10:18:42;6.50;;;3.60;;
71648;SDS011;70112;45.624;11.760;2024-02-28T10:21:08;7.00;;;5.00;;
71648;SDS011;70112;45.624;11.760;2024-02-28T10:23:34;9.10;;;5.50;;
71648;SDS011;70112;45.624;11.760;2024-02-28T10:26:02;8.00;;;5.70;;
71648;SDS011;70112;45.624;11.760;2024-02-28T10:28:27;8.10;;;4.30;;
71648;SDS011;70112;45.624;11.760;2024-02-28T10:30:53;6.40;;;5.20;;
71648;SDS011;70112;45.624;11.760;2024-02-28T10:33:19;7.70;;;4.40;;
71648;SDS011;70112;45.624;11.760;2024-02-28T10:35:45;5.40;;;4.30;;
71648;SDS011;70112;45.624;11.760;2024-02-28T10:38:11;5.60;;;4.00;;
71648;SDS011;70112;45.624;11.760;2024-02-28T10:40:40;6.70;;;4.50;;
71648;SDS011;70112;45.624;11.760;2024-02-28T10:43:10;10.90;;;5.00;;
71648;SDS011;70112;45.624;11.760;2024-02-28T10:45:36;4.60;;;3.90;;
71648;SDS011;70112;45.624;11.760;2024-02-28T10:48:04;16.10;;;11.40;;
71648;SDS011;70112;45.624;11.760;2024-02-28T10:50:30;55.60;;;38.20;;
71648;SDS011;70112;45.624;11.760;2024-02-28T10:53:01;42.30;;;29.90;;
71648;SDS011;70112;45.624;11.760;2024-02-28T10:55:33;17.90;;;12.70;;
71648;SDS011;70112;45.624;11.760;2024-02-28T10:58:05;9.40;;;6.80;;
71648;SDS011;70112;45.624;11.760;2024-02-28T11:00:34;5.30;;;3.60;;
71648;SDS011;70112;45.624;11.760;2024-02-28T11:03:01;3.20;;;2.90;;
71648;SDS011;70112;45.624;11.760;2024-02-28T11:05:39;4.10;;;2.80;;
71648;SDS011;70112;45.624;11.760;2024-02-28T11:08:11;3.50;;;2.60;;
71648;SDS011;70112;45.624;11.760;2024-02-28T11:10:53;5.00;;;2.90;;
71648;SDS011;70112;45.624;11.760;2024-02-28T11:13:24;6.10;;;4.40;;
71648;SDS011;70112;45.624;11.760;2024-02-28T11:15:52;4.60;;;3.40;;
71648;SDS011;70112;45.624;11.760;2024-02-28T11:18:19;3.60;;;3.00;;
71648;SDS011;70112;45.624;11.760;2024-02-28T11:20:44;5.70;;;3.00;;
71648;SDS011;70112;45.624;11.760;2024-02-28T11:23:14;4.30;;;3.60;;
71648;SDS011;70112;45.624;11.760;2024-02-28T11:25:43;6.70;;;3.70;;
71648;SDS011;70112;45.624;11.760;2024-02-28T11:28:09;6.70;;;4.30;;
71648;SDS011;70112;45.624;11.760;2024-02-28T11:30:35;9.90;;;4.50;;
71648;SDS011;70112;45.624;11.760;2024-02-28T11:33:01;5.80;;;4.00;;
71648;SDS011;70112;45.624;11.760;2024-02-28T11:35:27;6.90;;;4.60;;
71648;SDS011;70112;45.624;11.760;2024-02-28T11:37:56;7.10;;;6.10;;
71648;SDS011;70112;45.624;11.760;2024-02-28T11:40:25;6.70;;;5.20;;
71648;SDS011;70112;45.624;11.760;2024-02-28T11:42:54;7.10;;;5.20;;
71648;SDS011;70112;45.624;11.760;2024-02-28T11:45:20;6.30;;;4.90;;
71648;SDS011;70112;45.624;11.760;2024-02-28T11:47:46;9.20;;;4.20;;
71648;SDS011;70112;45.624;11.760;2024-02-28T11:50:12;6.50;;;4.50;;
71648;SDS011;70112;45.624;11.760;2024-02-28T11:52:40;6.40;;;4.70;;
71648;SDS011;70112;45.624;11.760;2024-02-28T11:55:06;9.50;;;5.10;;
71648;SDS011;70112;45.624;11.760;2024-02-28T11:57:32;5.20;;;3.80;;
71648;SDS011;70112;45.624;11.760;2024-02-28T12:00:03;7.00;;;3.80;;
71648;SDS011;70112;45.624;11.760;2024-02-28T12:02:30;4.60;;;3.40;;
71648;SDS011;70112;45.624;11.760;2024-02-28T12:05:00;4.80;;;3.10;;
71648;SDS011;70112;45.624;11.760;2024-02-28T12:07:31;4.50;;;3.20;;
71648;SDS011;70112;45.624;11.760;2024-02-28T12:10:00;7.10;;;4.20;;
71648;SDS011;70112;45.624;11.760;2024-02-28T12:12:29;4.80;;;4.00;;
71648;SDS011;70112;45.624;11.760;2024-02-28T12:15:01;5.00;;;3.90;;
71648;SDS011;70112;45.624;11.760;2024-02-28T12:17:30;5.20;;;4.50;;
71648;SDS011;70112;45.624;11.760;2024-02-28T12:19:59;5.30;;;4.40;;
71648;SDS011;70112;45.624;11.760;2024-02-28T12:22:25;4.50;;;3.20;;
71648;SDS011;70112;45.624;11.760;2024-02-28T12:24:51;4.00;;;3.40;;
71648;SDS011;70112;45.624;11.760;2024-02-28T12:27:16;4.20;;;3.60;;
71648;SDS011;70112;45.624;11.760;2024-02-28T12:29:42;3.90;;;3.20;;
71648;SDS011;70112;45.624;11.760;2024-02-28T12:32:09;5.40;;;3.60;;
71648;SDS011;70112;45.624;11.760;2024-02-28T12:34:34;9.20;;;4.40;;
71648;SDS011;70112;45.624;11.760;2024-02-28T12:37:00;7.00;;;5.20;;
71648;SDS011;70112;45.624;11.760;2024-02-28T12:39:26;5.90;;;4.60;;
71648;SDS011;70112;45.624;11.760;2024-02-28T12:41:52;6.90;;;4.10;;
71648;SDS011;70112;45.624;11.760;2024-02-28T12:44:18;5.70;;;3.20;;
71648;SDS011;70112;45.624;11.760;2024-02-28T12:46:43;4.70;;;3.30;;
71648;SDS011;70112;45.624;11.760;2024-02-28T12:49:09;4.60;;;3.60;;
71648;SDS011;70112;45.624;11.760;2024-02-28T12:54:03;4.30;;;2.80;;
71648;SDS011;70112;45.624;11.760;2024-02-28T12:56:29;4.50;;;3.20;;
71648;SDS011;70112;45.624;11.760;2024-02-28T12:58:55;5.30;;;3.10;;
71648;SDS011;70112;45.624;11.760;2024-02-28T13:01:20;4.20;;;2.90;;
71648;SDS011;70112;45.624;11.760;2024-02-28T13:03:46;4.10;;;3.40;;
71648;SDS011;70112;45.624;11.760;2024-02-28T13:06:13;4.40;;;3.40;;
71648;SDS011;70112;45.624;11.760;2024-02-28T13:08:40;4.90;;;3.70;;
71648;SDS011;70112;45.624;11.760;2024-02-28T13:11:06;6.30;;;3.50;;
71648;SDS011;70112;45.624;11.760;2024-02-28T13:13:32;4.80;;;3.30;;
71648;SDS011;70112;45.624;11.760;2024-02-28T13:15:58;5.80;;;3.50;;
71648;SDS011;70112;45.624;11.760;2024-02-28T13:18:23;5.30;;;4.10;;
71648;SDS011;70112;45.624;11.760;2024-02-28T13:20:51;5.50;;;4.70;;
71648;SDS011;70112;45.624;11.760;2024-02-28T13:23:17;5.20;;;4.30;;
71648;SDS011;70112;45.624;11.760;2024-02-28T13:25:44;6.10;;;4.10;;
71648;SDS011;70112;45.624;11.760;2024-02-28T13:28:10;11.20;;;3.90;;
71648;SDS011;70112;45.624;11.760;2024-02-28T13:30:36;4.00;;;3.50;;
71648;SDS011;70112;45.624;11.760;2024-02-28T13:33:03;4.10;;;3.20;;
71648;SDS011;70112;45.624;11.760;2024-02-28T13:35:29;7.40;;;3.80;;
71648;SDS011;70112;45.624;11.760;2024-02-28T13:37:56;6.10;;;3.60;;
71648;SDS011;70112;45.624;11.760;2024-02-28T13:40:28;6.60;;;3.70;;
71648;SDS011;70112;45.624;11.760;2024-02-28T13:42:53;5.80;;;4.20;;
71648;SDS011;70112;45.624;11.760;2024-02-28T13:45:19;5.90;;;5.00;;
71648;SDS011;70112;45.624;11.760;2024-02-28T13:47:45;7.50;;;5.10;;
71648;SDS011;70112;45.624;11.760;2024-02-28T13:50:10;7.50;;;5.10;;
71648;SDS011;70112;45.624;11.760;2024-02-28T13:52:36;8.50;;;5.00;;
71648;SDS011;70112;45.624;11.760;2024-02-28T13:55:01;7.10;;;4.60;;
71648;SDS011;70112;45.624;11.760;2024-02-28T13:57:27;9.90;;;5.30;;
71648;SDS011;70112;45.624;11.760;2024-02-28T13:59:53;13.50;;;6.50;;
71648;SDS011;70112;45.624;11.760;2024-02-28T14:02:20;9.10;;;5.60;;
71648;SDS011;70112;45.624;11.760;2024-02-28T14:04:47;9.00;;;5.80;;
71648;SDS011;70112;45.624;11.760;2024-02-28T14:07:17;11.00;;;6.50;;
71648;SDS011;70112;45.624;11.760;2024-02-28T14:09:43;12.20;;;6.60;;
71648;SDS011;70112;45.624;11.760;2024-02-28T14:12:12;11.60;;;7.10;;
71648;SDS011;70112;45.624;11.760;2024-02-28T14:14:38;11.90;;;6.10;;
71648;SDS011;70112;45.624;11.760;2024-02-28T14:17:05;13.00;;;6.10;;
71648;SDS011;70112;45.624;11.760;2024-02-28T14:19:30;10.10;;;5.50;;
71648;SDS011;70112;45.624;11.760;2024-02-28T14:21:56;6.60;;;4.30;;
71648;SDS011;70112;45.624;11.760;2024-02-28T14:24:22;6.50;;;3.90;;
71648;SDS011;70112;45.624;11.760;2024-02-28T14:30:28;6.70;;;4.00;;
71648;SDS011;70112;45.624;11.760;2024-02-28T14:32:53;6.60;;;4.70;;
71648;SDS011;70112;45.624;11.760;2024-02-28T14:35:19;6.90;;;4.30;;